メインページ
METAR-TAF:

METAR-TAF

空港 :

ダブリン, アイルランド

ダブリン空港

緯度: 53-26N, 経度: 006-15W, 海抜: 68m

現時点の気象観測

当レポートは15分前の21:00(UTC)に作成
の風 16kt
気温 13°C
湿度 77%
気圧 991 hPa
視程10km以上
高度500ftの雲はほとんどない

METAR: EIDW 202100Z 19016KT 9999 FEW005 13/09 Q0991 NOSIG

時間: 22:15 (21:15 UTC)

予報

当レポートは2時間50分前の18:25(UTC)に作成
予報は20日の 18時(UTC)から 21日の 18時(UTC)まで有効
南東の風 20kt、最大30ktの突風を伴う
視程10km以上
高度1200ftの雲はほとんどない
高度3000ftの千切れ雲あり
20日の 18時(UTC)から 20日の 21時(UTC)まで一時的に
南/南東の風 22kt、最大36ktの突風を伴う
視程: 5000m
高度500ftの千切れ雲あり
小雨, 霧雨
20日の 20時(UTC)から 20日の 22時(UTC)まで徐々に
の風 17kt、最大28ktの突風を伴う
20日の 23時(UTC)から 21日の 09時(UTC)まで一時的に
の風 20kt、最大35ktの突風を伴う
高度1800ftの雲はほとんどない, 積乱雲.
高度2500ftの千切れ雲あり
弱いにわか雨
21日の 09時(UTC)から 21日の 13時(UTC)まで一時的に
視程: 4000m
高度1000ftの千切れ雲あり
高度2000ftの雲は散在している, 積乱雲.
にわか雨
21日の 09時(UTC)から 21日の 12時(UTC)まで徐々に
西の風 24kt、最大36ktの突風を伴う
21日の 11時(UTC)から 21日の 18時(UTC)まで一時的に
西/北西の風 27kt、最大42ktの突風を伴う
高度2000ftの雲は散在している, 積乱雲.
弱いにわか雨

TAF: EIDW 201825Z 2018/2118 14020G30KT 9999 FEW012 BKN030 TEMPO 2018/2021 15022G36KT 5000 -RADZ BKN005 BECMG 2020/2022 17017G28KT TEMPO 2023/2109 17020G35KT -SHRA FEW018CB BKN025 TEMPO 2109/2113 4000 SHRA BKN010 SCT020CB BECMG 2109/2112 28024G36KT TEMPO 2111/2118 29027G42KT -SHRA SCT020CB

4,000以上の空港の気象観測と天気予報(METAR報とTAF報)

利用可能な観測所は地図上に黄色い丸と赤い丸で示す。

丸の上にカーソルを重ねると観測所名を参照できる。

次にクリックすると気象観測と天気予報を参照できる。

マップの切り替え:黒色「×」印の緑ボタンをクリックして拡大、「-」印の緑ボタンをクリックして縮小、緑色の三角印をクリックして隣りの地図に切り替え


METAR-TAF: